createdAt,value
2023-03-06T00:01:38.143Z,4.71
2023-03-06T00:04:10.952Z,4.72
2023-03-06T00:06:44.967Z,4.74
2023-03-06T00:09:18.323Z,4.75
2023-03-06T00:11:51.176Z,4.75
2023-03-06T00:14:24.901Z,4.69
2023-03-06T00:16:58.798Z,4.70
2023-03-06T00:19:32.191Z,4.77
2023-03-06T00:22:05.477Z,4.66
2023-03-06T00:24:39.646Z,4.68
2023-03-06T00:27:13.861Z,4.66
2023-03-06T00:29:49.727Z,4.60
2023-03-06T00:32:23.798Z,4.58
2023-03-06T00:34:58.493Z,4.67
2023-03-06T00:37:32.305Z,4.68
2023-03-06T00:40:08.452Z,4.70
2023-03-06T00:42:42.812Z,4.64
2023-03-06T00:45:16.610Z,4.64
2023-03-06T00:47:51.580Z,4.75
2023-03-06T00:50:24.818Z,4.75
2023-03-06T00:52:58.354Z,4.76
2023-03-06T00:55:31.721Z,4.67
2023-03-06T00:58:04.669Z,4.53
2023-03-06T01:00:37.462Z,4.62
2023-03-06T01:03:10.663Z,4.66
2023-03-06T01:05:43.527Z,4.74
2023-03-06T01:08:16.692Z,4.67
2023-03-06T01:10:49.505Z,4.68
2023-03-06T01:13:22.579Z,4.62
2023-03-06T01:15:57.975Z,4.67
2023-03-06T01:18:31.018Z,4.63
2023-03-06T01:21:03.896Z,4.65
2023-03-06T01:23:37.129Z,4.71
2023-03-06T01:26:10.555Z,4.74
2023-03-06T01:28:43.410Z,4.67
2023-03-06T01:31:16.114Z,4.66
2023-03-06T01:33:48.755Z,4.67
2023-03-06T01:36:21.781Z,4.76
2023-03-06T01:38:54.866Z,4.77
2023-03-06T01:41:27.999Z,4.72
2023-03-06T01:44:01.212Z,4.79
2023-03-06T01:46:44.596Z,4.79
2023-03-06T01:49:33.948Z,4.80
2023-03-06T01:52:18.988Z,4.80
2023-03-06T01:54:59.909Z,4.83
2023-03-06T01:57:39.651Z,4.83
2023-03-06T02:00:16.512Z,4.85
2023-03-06T02:02:59.177Z,4.82
2023-03-06T02:05:32.629Z,4.83
2023-03-06T02:08:07.807Z,4.91
2023-03-06T02:10:42.756Z,4.89
2023-03-06T02:13:15.531Z,4.78
2023-03-06T02:15:48.665Z,4.76
2023-03-06T02:18:22.027Z,4.82
2023-03-06T02:20:59.695Z,4.76
2023-03-06T02:24:14.385Z,4.68
2023-03-06T02:26:48.806Z,4.67
2023-03-06T02:29:27.449Z,4.68
2023-03-06T02:32:01.872Z,4.68
2023-03-06T02:34:52.297Z,4.61
2023-03-06T02:37:26.375Z,4.65
2023-03-06T02:40:20.305Z,4.57
2023-03-06T02:43:00.109Z,4.44
2023-03-06T02:45:41.351Z,4.60
2023-03-06T02:48:15.459Z,4.59
2023-03-06T02:50:49.267Z,4.58
2023-03-06T02:53:23.250Z,4.58
2023-03-06T02:55:56.548Z,4.57
2023-03-06T02:58:29.635Z,4.55
2023-03-06T03:01:03.009Z,4.54
2023-03-06T03:03:36.020Z,4.49
2023-03-06T03:06:11.608Z,4.49
2023-03-06T03:08:44.958Z,4.50
2023-03-06T03:11:18.167Z,4.40
2023-03-06T03:13:51.236Z,4.39
2023-03-06T03:16:30.053Z,4.37
2023-03-06T03:19:03.908Z,4.28
2023-03-06T03:21:37.280Z,4.44
2023-03-06T03:24:10.885Z,4.45
2023-03-06T03:26:44.557Z,4.41
2023-03-06T03:29:20.255Z,4.31
2023-03-06T03:31:53.096Z,4.34
2023-03-06T03:34:25.999Z,4.41
2023-03-06T03:36:59.225Z,4.44
2023-03-06T03:39:32.339Z,4.46
2023-03-06T03:42:05.324Z,4.48
2023-03-06T03:44:38.641Z,4.50
2023-03-06T03:47:11.563Z,4.51
2023-03-06T03:49:44.467Z,4.52
2023-03-06T03:52:17.738Z,4.53
2023-03-06T03:54:51.022Z,4.54
2023-03-06T03:57:23.769Z,4.47
2023-03-06T03:59:57.873Z,4.55
2023-03-06T04:02:48.726Z,4.56
2023-03-06T04:05:35.365Z,4.56
2023-03-06T04:08:09.371Z,4.54
2023-03-06T04:10:43.993Z,4.55
2023-03-06T04:13:18.609Z,4.56
2023-03-06T04:15:53.339Z,4.54
2023-03-06T04:18:26.594Z,4.52
2023-03-06T04:21:01.250Z,4.53
2023-03-06T04:23:34.035Z,4.56
2023-03-06T04:26:07.518Z,4.56
2023-03-06T04:28:40.112Z,4.46
2023-03-06T04:31:14.987Z,4.50
2023-03-06T04:33:48.502Z,4.48
2023-03-06T04:36:39.553Z,4.44
2023-03-06T04:39:16.628Z,4.42
2023-03-06T04:41:50.178Z,4.35
2023-03-06T04:44:23.100Z,4.23
2023-03-06T04:46:55.784Z,4.41
2023-03-06T04:49:28.720Z,4.38
2023-03-06T04:52:01.281Z,4.30
2023-03-06T04:54:34.344Z,4.14
2023-03-06T04:57:07.248Z,4.41
2023-03-06T04:59:40.097Z,4.43
2023-03-06T05:02:13.127Z,4.37
2023-03-06T05:04:46.197Z,4.40
2023-03-06T05:07:18.986Z,4.35
2023-03-06T05:09:51.784Z,4.53
2023-03-06T05:12:24.343Z,4.58
2023-03-06T05:14:57.182Z,4.50
2023-03-06T05:17:30.326Z,4.66
2023-03-06T05:20:03.343Z,4.66
2023-03-06T05:22:37.236Z,4.70
2023-03-06T05:25:11.031Z,4.63
2023-03-06T05:27:44.450Z,4.57
2023-03-06T05:30:19.210Z,4.66
2023-03-06T05:32:53.121Z,4.88
2023-03-06T05:35:26.588Z,4.97
2023-03-06T05:37:59.777Z,5.02
2023-03-06T05:40:32.910Z,5.12
2023-03-06T05:43:07.089Z,5.20
2023-03-06T05:45:41.842Z,5.24
2023-03-06T05:48:15.911Z,5.33
2023-03-06T05:50:58.536Z,5.43
2023-03-06T05:53:32.041Z,5.51
2023-03-06T05:56:07.481Z,5.66
2023-03-06T05:58:41.457Z,5.86
2023-03-06T06:01:17.145Z,5.99
2023-03-06T06:03:50.712Z,6.03
2023-03-06T06:06:24.066Z,6.17
2023-03-06T06:08:57.088Z,6.25
2023-03-06T06:11:30.014Z,6.32
2023-03-06T06:14:03.225Z,6.38
2023-03-06T06:16:36.361Z,6.41
2023-03-06T06:19:11.897Z,6.40
2023-03-06T06:21:45.492Z,6.38
2023-03-06T06:24:20.795Z,6.36
2023-03-06T06:26:55.716Z,6.27
2023-03-06T06:29:30.537Z,6.30
2023-03-06T06:32:10.623Z,6.23
2023-03-06T06:34:44.042Z,6.15
2023-03-06T06:37:17.428Z,6.01
2023-03-06T06:39:52.429Z,5.89
2023-03-06T06:42:35.087Z,5.85
2023-03-06T06:45:15.706Z,5.75
2023-03-06T06:47:50.970Z,5.73
2023-03-06T06:50:24.174Z,5.74
2023-03-06T06:52:58.911Z,5.74
2023-03-06T06:55:31.915Z,5.73
2023-03-06T06:58:06.154Z,5.75
2023-03-06T07:00:40.592Z,5.72
2023-03-06T07:03:16.646Z,5.81
2023-03-06T07:05:58.376Z,5.89
2023-03-06T07:08:33.781Z,6.03
2023-03-06T07:11:16.442Z,6.15
2023-03-06T07:13:50.945Z,6.15
2023-03-06T07:16:25.133Z,6.17
2023-03-06T07:18:58.474Z,6.22
2023-03-06T07:21:32.054Z,6.25
2023-03-06T07:24:05.223Z,6.29
2023-03-06T07:26:39.295Z,6.37
2023-03-06T07:29:13.657Z,6.46
2023-03-06T07:31:47.601Z,6.41
2023-03-06T07:34:21.755Z,6.50
2023-03-06T07:36:55.112Z,6.59
2023-03-06T07:39:28.754Z,6.68
2023-03-06T07:42:02.200Z,6.75
2023-03-06T07:44:39.304Z,6.80
2023-03-06T07:47:14.354Z,6.94
2023-03-06T07:49:47.892Z,7.14
2023-03-06T07:52:21.058Z,7.34
2023-03-06T07:54:54.469Z,7.65
2023-03-06T07:57:28.434Z,8.01
2023-03-06T08:00:01.669Z,8.21
2023-03-06T08:02:35.777Z,8.39
2023-03-06T08:05:10.386Z,8.62
2023-03-06T08:07:43.829Z,8.95
2023-03-06T08:10:18.540Z,9.22
2023-03-06T08:12:52.300Z,9.50
2023-03-06T08:15:25.985Z,9.71
2023-03-06T08:17:59.068Z,9.90
2023-03-06T08:20:32.190Z,10.03
2023-03-06T08:23:05.146Z,10.06
2023-03-06T08:25:38.112Z,10.13
2023-03-06T08:28:11.373Z,10.27
2023-03-06T08:30:45.560Z,10.30
2023-03-06T08:33:19.610Z,10.23
2023-03-06T08:35:55.975Z,10.26
2023-03-06T08:38:29.792Z,10.29
2023-03-06T08:41:03.337Z,10.33
2023-03-06T08:43:37.261Z,10.32
2023-03-06T08:46:12.017Z,10.37
2023-03-06T08:48:45.580Z,10.46
2023-03-06T08:51:20.608Z,10.66
2023-03-06T08:53:55.332Z,10.87
2023-03-06T08:56:34.456Z,11.13
2023-03-06T08:59:09.868Z,11.35
2023-03-06T09:01:45.595Z,11.58
2023-03-06T09:04:19.107Z,11.80
2023-03-06T09:06:53.927Z,11.89
2023-03-06T09:09:29.435Z,12.08
2023-03-06T09:12:02.543Z,12.25
2023-03-06T09:14:35.892Z,12.34
2023-03-06T09:17:10.424Z,12.40
2023-03-06T09:19:43.851Z,12.43
2023-03-06T09:22:16.906Z,12.52
2023-03-06T09:24:50.260Z,12.59
2023-03-06T09:27:23.250Z,12.52
2023-03-06T09:29:56.562Z,12.61
2023-03-06T09:32:30.816Z,12.70
2023-03-06T09:35:04.626Z,12.71
2023-03-06T09:37:38.014Z,12.72
2023-03-06T09:40:21.990Z,12.72
2023-03-06T09:42:55.329Z,12.95
2023-03-06T09:45:28.630Z,13.05
2023-03-06T09:48:14.199Z,13.13
2023-03-06T09:51:11.325Z,13.20
2023-03-06T09:53:57.353Z,13.35
2023-03-06T09:56:35.412Z,13.49
2023-03-06T09:59:18.075Z,13.34
2023-03-06T10:02:17.152Z,13.41
2023-03-06T10:04:59.917Z,13.14
2023-03-06T10:08:04.538Z,13.07
2023-03-06T10:11:04.958Z,13.05
2023-03-06T10:14:14.179Z,13.16
2023-03-06T10:16:47.495Z,13.20
2023-03-06T10:19:22.759Z,13.23
2023-03-06T10:22:23.251Z,13.31
2023-03-06T10:25:26.343Z,13.44
2023-03-06T10:28:10.561Z,13.57
2023-03-06T10:31:04.025Z,13.47
2023-03-06T10:33:51.368Z,13.48
2023-03-06T10:36:30.233Z,13.07
2023-03-06T10:39:06.805Z,13.19
2023-03-06T10:41:40.576Z,13.30
2023-03-06T10:44:15.920Z,13.37
2023-03-06T10:46:52.187Z,13.49
2023-03-06T10:49:42.898Z,13.65
2023-03-06T10:52:19.121Z,13.76
2023-03-06T10:54:52.361Z,13.84
2023-03-06T10:57:33.193Z,13.95
2023-03-06T11:00:25.806Z,14.02
2023-03-06T11:03:24.412Z,14.18
2023-03-06T11:06:03.171Z,14.19
2023-03-06T11:08:37.844Z,14.24
2023-03-06T11:11:36.867Z,14.14
2023-03-06T11:14:24.582Z,14.07
2023-03-06T11:16:59.216Z,13.99
2023-03-06T11:19:33.473Z,14.00
2023-03-06T11:22:20.385Z,14.00
2023-03-06T11:24:57.020Z,13.95
2023-03-06T11:27:35.342Z,13.87
2023-03-06T11:30:27.546Z,13.91
2023-03-06T11:33:13.576Z,13.77
2023-03-06T11:36:10.487Z,13.63
2023-03-06T11:39:02.189Z,13.49
2023-03-06T11:41:51.221Z,13.36
2023-03-06T11:44:52.853Z,13.42
2023-03-06T11:47:38.363Z,13.33
2023-03-06T11:50:11.204Z,13.20
2023-03-06T11:52:54.025Z,13.01
2023-03-06T11:55:52.184Z,12.89
2023-03-06T11:58:40.906Z,12.97
2023-03-06T12:01:40.965Z,12.83
2023-03-06T12:04:48.557Z,12.59
2023-03-06T12:07:35.588Z,12.47
2023-03-06T12:10:33.092Z,12.51
2023-03-06T12:13:30.747Z,12.45
2023-03-06T12:16:26.880Z,12.32
2023-03-06T12:19:15.873Z,12.19
2023-03-06T12:22:19.154Z,12.12
2023-03-06T12:25:31.582Z,12.11
2023-03-06T12:28:25.046Z,12.22
2023-03-06T12:31:09.797Z,12.36
2023-03-06T12:34:02.900Z,12.39
2023-03-06T12:36:54.951Z,12.40
2023-03-06T12:39:46.791Z,12.38
2023-03-06T12:42:36.779Z,12.42
2023-03-06T12:45:33.158Z,12.52
2023-03-06T12:48:21.637Z,12.59
2023-03-06T12:50:55.700Z,12.54
2023-03-06T12:53:36.384Z,12.54
2023-03-06T12:56:10.091Z,12.40
2023-03-06T12:59:03.173Z,12.48
2023-03-06T13:02:00.590Z,12.39
2023-03-06T13:04:38.924Z,12.46
2023-03-06T13:07:32.974Z,12.49
2023-03-06T13:10:16.406Z,12.54
2023-03-06T13:13:02.745Z,12.58
2023-03-06T13:15:47.030Z,12.55
2023-03-06T13:18:25.982Z,12.48
2023-03-06T13:21:01.246Z,12.42
2023-03-06T13:23:37.811Z,12.35
2023-03-06T13:26:34.604Z,12.31
2023-03-06T13:29:39.349Z,12.24
2023-03-06T13:32:31.300Z,12.11
2023-03-06T13:35:05.052Z,12.16
2023-03-06T13:37:51.069Z,12.13
2023-03-06T13:40:36.866Z,11.99
2023-03-06T13:43:12.473Z,12.19
2023-03-06T13:45:48.361Z,12.21
2023-03-06T13:48:44.662Z,12.20
2023-03-06T13:51:30.512Z,12.20
2023-03-06T13:54:26.789Z,12.19
2023-03-06T13:57:26.801Z,12.16
2023-03-06T14:00:17.361Z,12.20
2023-03-06T14:03:10.421Z,12.11
2023-03-06T14:05:53.994Z,11.95
2023-03-06T14:08:42.400Z,11.72
2023-03-06T14:11:23.208Z,11.76
2023-03-06T14:13:59.371Z,11.67
2023-03-06T14:16:49.320Z,11.55
2023-03-06T14:19:26.348Z,11.54
2023-03-06T14:22:02.066Z,11.44
2023-03-06T14:24:43.417Z,11.30
2023-03-06T14:27:25.051Z,11.35
2023-03-06T14:30:09.904Z,11.32
2023-03-06T14:32:44.615Z,11.31
2023-03-06T14:35:31.191Z,11.26
2023-03-06T14:38:08.865Z,11.22
2023-03-06T14:40:46.972Z,11.07
2023-03-06T14:43:23.700Z,11.05
2023-03-06T14:46:07.835Z,10.87
2023-03-06T14:48:47.483Z,10.80
2023-03-06T14:51:26.064Z,10.67
2023-03-06T14:54:04.202Z,10.64
2023-03-06T14:56:43.708Z,10.50
2023-03-06T14:59:21.999Z,10.48
2023-03-06T15:02:04.787Z,10.36
2023-03-06T15:05:15.392Z,10.16
2023-03-06T15:07:48.875Z,10.07
2023-03-06T15:10:30.641Z,9.93
2023-03-06T15:13:26.472Z,9.80
2023-03-06T15:16:25.671Z,9.69
2023-03-06T15:19:01.693Z,9.58
2023-03-06T15:21:42.157Z,9.46
2023-03-06T15:24:37.613Z,9.34
2023-03-06T15:27:27.197Z,9.21
2023-03-06T15:30:30.674Z,9.04
2023-03-06T15:33:33.079Z,8.96
2023-03-06T15:36:08.256Z,8.82
2023-03-06T15:38:43.891Z,8.72
2023-03-06T15:41:38.552Z,8.61
2023-03-06T15:44:15.704Z,8.49
2023-03-06T15:46:51.807Z,8.39
2023-03-06T15:49:28.279Z,8.28
2023-03-06T15:52:01.805Z,8.18
2023-03-06T15:54:35.804Z,7.99
2023-03-06T15:57:18.357Z,7.96
2023-03-06T15:59:52.516Z,7.82
2023-03-06T16:02:26.994Z,7.74
2023-03-06T16:05:03.405Z,7.62
2023-03-06T16:07:36.934Z,7.45
2023-03-06T16:10:15.696Z,7.43
2023-03-06T16:12:52.697Z,7.32
2023-03-06T16:15:33.557Z,7.21
2023-03-06T16:18:08.232Z,7.12
2023-03-06T16:20:42.463Z,7.02
2023-03-06T16:23:17.115Z,6.94
2023-03-06T16:25:51.970Z,6.84
2023-03-06T16:28:27.687Z,6.69
2023-03-06T16:31:01.107Z,6.55
2023-03-06T16:33:34.229Z,6.39
2023-03-06T16:36:19.869Z,6.38
2023-03-06T16:38:54.073Z,6.29
2023-03-06T16:41:28.456Z,6.14
2023-03-06T16:44:02.292Z,5.99
2023-03-06T16:46:35.834Z,5.96
2023-03-06T16:49:10.248Z,5.65
2023-03-06T16:51:43.917Z,5.50
2023-03-06T16:54:18.537Z,5.33
2023-03-06T16:56:51.905Z,5.31
2023-03-06T16:59:25.867Z,5.24
2023-03-06T17:02:00.485Z,5.10
2023-03-06T17:04:33.591Z,4.99
2023-03-06T17:07:07.241Z,4.92
2023-03-06T17:09:41.315Z,4.71
2023-03-06T17:12:15.392Z,4.53
2023-03-06T17:14:49.167Z,4.40
2023-03-06T17:17:22.844Z,4.28
2023-03-06T17:19:56.697Z,4.14
2023-03-06T17:22:31.202Z,4.05
2023-03-06T17:25:07.438Z,3.90
2023-03-06T17:27:40.679Z,3.70
2023-03-06T17:30:14.320Z,3.54
2023-03-06T17:32:48.052Z,3.09
2023-03-06T17:35:22.179Z,3.03
2023-03-06T17:37:56.126Z,3.04
2023-03-06T17:40:29.539Z,3.03
2023-03-06T17:43:03.465Z,2.97
2023-03-06T17:45:39.035Z,2.94
2023-03-06T17:48:12.630Z,3.04
2023-03-06T17:50:46.454Z,3.01
2023-03-06T17:53:20.278Z,2.99
2023-03-06T17:55:53.748Z,2.98
2023-03-06T17:58:27.025Z,2.88
2023-03-06T18:01:01.721Z,2.80
2023-03-06T18:03:38.117Z,2.82
2023-03-06T18:06:12.656Z,2.68
2023-03-06T18:08:46.550Z,2.73
2023-03-06T18:11:20.149Z,2.64
2023-03-06T18:13:53.503Z,2.58
2023-03-06T18:16:28.886Z,2.41
2023-03-06T18:19:02.714Z,2.49
2023-03-06T18:21:36.210Z,2.49
2023-03-06T18:24:11.097Z,2.47
2023-03-06T18:26:46.392Z,2.46
2023-03-06T18:29:19.409Z,2.51
2023-03-06T18:31:53.747Z,2.45
2023-03-06T18:34:26.835Z,2.46
2023-03-06T18:36:59.941Z,2.53
2023-03-06T18:39:32.786Z,2.48
2023-03-06T18:42:06.299Z,2.55
2023-03-06T18:44:40.127Z,2.51
2023-03-06T18:47:14.287Z,2.56
2023-03-06T18:49:48.426Z,2.48
2023-03-06T18:52:25.932Z,2.54
2023-03-06T18:54:59.793Z,2.45
2023-03-06T18:57:34.090Z,2.44
2023-03-06T19:00:08.299Z,2.52
2023-03-06T19:02:41.904Z,2.51
2023-03-06T19:05:15.076Z,2.48
2023-03-06T19:07:47.920Z,2.40
2023-03-06T19:10:22.116Z,2.41
2023-03-06T19:12:55.776Z,2.36
2023-03-06T19:15:28.894Z,2.29
2023-03-06T19:18:02.936Z,2.20
2023-03-06T19:20:36.443Z,2.32
2023-03-06T19:23:10.324Z,2.25
2023-03-06T19:25:44.404Z,2.11
2023-03-06T19:28:18.522Z,2.24
2023-03-06T19:30:51.764Z,2.12
2023-03-06T19:33:25.101Z,2.18
2023-03-06T19:35:58.874Z,2.21
2023-03-06T19:38:32.093Z,2.13
2023-03-06T19:41:04.987Z,2.09
2023-03-06T19:43:38.318Z,2.13
2023-03-06T19:46:15.643Z,2.05
2023-03-06T19:48:49.273Z,1.93
2023-03-06T19:51:22.322Z,1.93
2023-03-06T19:53:55.670Z,2.02
2023-03-06T19:56:32.370Z,1.93
2023-03-06T19:59:05.425Z,2.01
2023-03-06T20:01:39.028Z,1.97
2023-03-06T20:04:11.881Z,1.93
2023-03-06T20:06:47.150Z,2.00
2023-03-06T20:09:20.798Z,2.04
2023-03-06T20:11:53.438Z,2.05
2023-03-06T20:14:26.688Z,2.03
2023-03-06T20:16:59.849Z,2.03
2023-03-06T20:19:33.213Z,1.99
2023-03-06T20:22:06.423Z,1.83
2023-03-06T20:24:39.583Z,1.59
2023-03-06T20:27:12.798Z,1.45
2023-03-06T20:29:46.314Z,1.43
2023-03-06T20:32:19.242Z,1.35
2023-03-06T20:34:52.443Z,1.39
2023-03-06T20:37:25.746Z,1.42
2023-03-06T20:39:58.868Z,1.42
2023-03-06T20:42:31.928Z,1.40
2023-03-06T20:45:05.404Z,1.39
2023-03-06T20:47:38.637Z,1.30
2023-03-06T20:50:12.297Z,1.37
2023-03-06T20:52:48.123Z,1.39
2023-03-06T20:55:21.680Z,1.42
2023-03-06T20:57:58.155Z,1.47
2023-03-06T21:00:31.113Z,1.44
2023-03-06T21:03:04.086Z,1.47
2023-03-06T21:05:37.667Z,1.60
2023-03-06T21:08:11.084Z,1.57
2023-03-06T21:10:47.281Z,1.63
2023-03-06T21:13:20.428Z,1.55
2023-03-06T21:15:53.251Z,1.72
2023-03-06T21:18:26.436Z,1.70
2023-03-06T21:20:59.309Z,1.79
2023-03-06T21:23:33.024Z,1.80
2023-03-06T21:26:06.735Z,1.83
2023-03-06T21:28:40.260Z,1.81
2023-03-06T21:31:15.480Z,1.89
2023-03-06T21:33:49.165Z,1.81
2023-03-06T21:36:23.254Z,1.82
2023-03-06T21:38:56.438Z,1.90
2023-03-06T21:41:33.198Z,1.92
2023-03-06T21:44:07.950Z,1.96
2023-03-06T21:46:41.259Z,1.97
2023-03-06T21:49:14.729Z,1.97
2023-03-06T21:51:48.496Z,1.98
2023-03-06T21:54:21.500Z,2.01
2023-03-06T21:56:54.779Z,1.95
2023-03-06T21:59:27.621Z,1.95
2023-03-06T22:02:00.769Z,2.05
2023-03-06T22:04:34.021Z,1.96
2023-03-06T22:07:07.157Z,1.81
2023-03-06T22:09:39.857Z,2.03
2023-03-06T22:12:13.254Z,1.99
2023-03-06T22:14:49.724Z,2.01
2023-03-06T22:17:22.910Z,2.06
2023-03-06T22:19:55.989Z,2.10
2023-03-06T22:22:29.792Z,2.14
2023-03-06T22:25:02.582Z,2.19
2023-03-06T22:27:35.372Z,2.21
2023-03-06T22:30:08.676Z,2.16
2023-03-06T22:32:41.536Z,2.18
2023-03-06T22:35:14.253Z,2.12
2023-03-06T22:37:46.971Z,2.19
2023-03-06T22:40:19.823Z,2.25
2023-03-06T22:42:52.702Z,2.25
2023-03-06T22:45:25.539Z,2.25
2023-03-06T22:48:10.051Z,2.16
2023-03-06T22:50:46.292Z,2.16
2023-03-06T22:53:19.290Z,2.22
2023-03-06T22:55:52.843Z,2.18
2023-03-06T22:58:25.718Z,2.07
2023-03-06T23:00:58.253Z,2.15
2023-03-06T23:03:31.288Z,2.17
2023-03-06T23:06:06.514Z,2.19
2023-03-06T23:08:39.528Z,2.19
2023-03-06T23:11:14.035Z,2.19
2023-03-06T23:14:06.941Z,2.20
2023-03-06T23:17:00.235Z,2.24
2023-03-06T23:19:53.655Z,2.25
2023-03-06T23:22:48.830Z,2.27
2023-03-06T23:25:41.602Z,2.27
2023-03-06T23:28:14.740Z,2.27
2023-03-06T23:30:47.789Z,2.19
2023-03-06T23:33:20.366Z,2.26
2023-03-06T23:35:53.300Z,2.19
2023-03-06T23:38:25.909Z,2.24
2023-03-06T23:40:58.684Z,2.26
2023-03-06T23:43:31.226Z,2.25
2023-03-06T23:46:04.546Z,2.20
2023-03-06T23:48:40.887Z,2.11
2023-03-06T23:51:21.750Z,2.27
2023-03-06T23:53:59.287Z,2.29
2023-03-06T23:56:32.186Z,2.31
2023-03-06T23:59:05.022Z,2.35
